Flight Track Log - Related Links

Times and Time Zones

All times are in EDT time to prevent confusion due to time zone crossing. See the EJA831 flight status page for this flight to view local times or setup timezone preferences in your user account.

Time Position Orientation Groundspeed Altitude Reporting Facility
EDT Latitude Longitude Course Direction KTS MPH feet Rate Location/Type
Sat 02:09:22 PM 40.4097 -86.9142 94° East 162 186 1,900  Level Chicago Center
Sat 02:09:46 PM 40.4081 -86.8800 94° East 199 229 3,100 3,698 Climbing Chicago Center
Sat 02:10:48 PM 40.3969 -86.7922 99° East 244 281 7,200 3,532 Climbing Chicago Center
Sat 02:11:50 PM 40.3864 -86.6925 98° East 270 311 10,400 3,366 Climbing Chicago Center
Sat 02:12:51 PM 40.3750 -86.5861 98° East 291 335 14,100 3,171 Climbing Chicago Center
Sat 02:13:53 PM 40.3625 -86.4744 98° East 305 351 16,900 2,613 Climbing Chicago Center
Sat 02:14:55 PM 40.3492 -86.3544 98° East 326 375 19,500 2,488 Climbing Chicago Center
Sat 02:15:56 PM 40.3356 -86.2300 98° East 340 391 22,000 1,707 Climbing Chicago Center
Sat 02:16:58 PM 40.3203 -86.0986 99° East 358 412 23,000 1,016 Climbing Chicago Center
Sat 02:18:00 PM 40.2961 -85.9544 102° East 399 459 24,100 1,103 Climbing Chicago Center
Sat 02:19:14 PM 40.2367 -85.7608 112° Southeast 427 491 25,500 1,059 Climbing Chicago Center
Sat 02:20:16 PM 40.2158 -85.6022 100° East 457 526 26,500 976 Climbing Chicago Center
Sat 02:21:17 PM 40.2233 -85.4372 87° East 452 520 27,500 956 Climbing Chicago Center
Sat 02:22:09 PM 40.2278 -85.2958 88° East 458 527 28,300 1,062 Climbing Indianapolis Center
Sat 02:23:10 PM 40.2361 -85.1256 86° East 463 533 29,500 1,415 Climbing Indianapolis Center
Sat 02:24:12 PM 40.2419 -84.9561 87° East 462 532 31,200 1,659 Climbing Indianapolis Center
Sat 02:25:13 PM 40.2492 -84.7856 87° East 454 522 32,900 1,512 Climbing Indianapolis Center
Sat 02:26:15 PM 40.2544 -84.6194 88° East 453 521 34,300 1,122 Climbing Indianapolis Center
Sat 02:27:16 PM 40.2603 -84.4486 87° East 463 533 35,200 1,317 Climbing Indianapolis Center
Sat 02:28:18 PM 40.2664 -84.2781 87° East 465 535 37,000 1,366 Climbing Indianapolis Center
Sat 02:29:19 PM 40.2714 -84.1133 88° East 453 521 38,000 488 Climbing Indianapolis Center
Sat 02:30:21 PM 40.2769 -83.9406 88° East 464 534 38,000 293 Level Indianapolis Center
Sat 02:31:22 PM 40.2817 -83.7622 88° East 480 552 38,600 1,171 Climbing Indianapolis Center
Sat 02:32:24 PM 40.2867 -83.5956 88° East 458 527 40,400 1,171 Climbing Indianapolis Center
Sat 02:33:25 PM 40.2911 -83.4075 88° East 439 505 41,000 293 Climbing Indianapolis Center
Sat 02:34:27 PM 40.2964 -83.2389 88° East 452 520 41,000  Level Indianapolis Center
Sat 02:35:28 PM 40.2992 -83.0683 89° East 459 528 41,000  Level Indianapolis Center
Sat 02:36:30 PM 40.3036 -82.8958 88° East 466 536 41,000  Level Indianapolis Center
Sat 02:37:31 PM 40.3058 -82.7425 89° East 469 540 41,000  Level Indianapolis Center
Sat 02:38:33 PM 40.3111 -82.5431 88° East 468 539 41,000  Level Indianapolis Center
Sat 02:39:34 PM 40.3131 -82.3708 89° East 471 542 41,000  Level Indianapolis Center
Sat 02:40:36 PM 40.3158 -82.1994 89° East 470 541 41,000  Level Indianapolis Center
Sat 02:41:37 PM 40.3186 -82.0261 89° East 473 544 41,000  Level Indianapolis Center
Sat 02:42:39 PM 40.3200 -81.8542 89° East 472 543 41,000  Level Indianapolis Center
Sat 02:43:40 PM 40.3217 -81.6797 89° East 477 549 41,000  Level Indianapolis Center
Sat 02:44:42 PM 40.3236 -81.5067 89° East 475 547 41,000  Level Indianapolis Center
Sat 02:44:57 PM 40.3264 -81.4600 86° East 473 544 41,000  Level Cleveland Center
Sat 02:45:57 PM 40.3256 -81.2883 90° East 473 544 41,000  Level Cleveland Center
Sat 02:46:57 PM 40.3286 -81.1169 89° East 473 544 41,000  Level Cleveland Center
Sat 02:47:57 PM 40.3292 -80.9453 90° East 473 544 41,000  Level Cleveland Center
Sat 02:48:57 PM 40.3297 -80.7764 90° East 473 544 41,000  Level Cleveland Center
Sat 02:49:57 PM 40.3297 -80.6050 90° East 473 544 41,000  Level Cleveland Center
Sat 02:50:57 PM 40.3297 -80.4333 90° East 468 539 41,000  Level Cleveland Center
Sat 02:51:57 PM 40.3272 -80.2617 91° East 468 539 41,000  Level Cleveland Center
Sat 02:52:57 PM 40.3267 -80.0928 90° East 463 533 41,000  Level Cleveland Center
Sat 02:53:57 PM 40.3278 -79.9022 90° East 470 541 41,000  Level Cleveland Center
Sat 02:54:57 PM 40.3267 -79.7308 90° East 470 541 41,000 -650 Level Cleveland Center
Sat 02:55:57 PM 40.3272 -79.5619 90° East 470 541 39,700 -1,550 Descending Cleveland Center
Sat 02:56:57 PM 40.3236 -79.3903 92° East 470 541 37,900 -1,800 Descending Cleveland Center
Sat 02:57:57 PM 40.3197 -79.2353 92° East 470 541 36,100 -1,900 Descending Cleveland Center
Sat 02:58:57 PM 40.3175 -79.0556 91° East 477 549 34,100 -1,900 Descending Cleveland Center
Sat 02:59:57 PM 40.3150 -78.8786 91° East 482 555 32,300 -1,850 Descending Cleveland Center
Sat 03:00:57 PM 40.3164 -78.6933 89° East 477 549 30,400 -1,750 Descending Cleveland Center
Sat 03:01:57 PM 40.3156 -78.5272 90° East 463 533 28,800 -1,600 Descending Cleveland Center
Sat 03:02:57 PM 40.3144 -78.3558 90° East 457 526 27,200 -1,399 Descending Cleveland Center
Sat 03:04:40 PM 40.3114 -78.0964 91° East 455 524 25,000 -810 Descending New York Center
Sat 03:05:40 PM 40.3108 -77.9383 90° East 441 507 25,000 -197 Level New York Center
Sat 03:06:42 PM 40.3117 -77.7833 90° East 436 502 24,600 -1,279 Descending New York Center
Sat 03:07:42 PM 40.3103 -77.6278 91° East 426 490 22,400 -1,835 Descending New York Center
Sat 03:08:43 PM 40.3083 -77.4833 91° East 414 476 20,900 -1,983 Descending New York Center
Sat 03:09:40 PM 40.3067 -77.3253 91° East 402 463 18,500 -1,983 Descending New York Center
Sat 03:10:41 PM 40.3017 -77.1914 93° East 380 437 17,000 -1,785 Descending New York Center
Sat 03:11:41 PM 40.2753 -77.0611 105° East 370 426 14,900 -1,934 Descending New York Center
Sat 03:12:42 PM 40.2525 -76.9392 104° East 356 410 13,100 -958 Descending New York Center
Sat 03:13:40 PM 40.2275 -76.8147 105° East 351 404 13,000 -50 Descending New York Center
Sat 03:14:41 PM 40.2042 -76.7039 105° East 351 404 13,000  Level New York Center
Sat 03:15:41 PM 40.1792 -76.5767 104° East 351 404 13,000  Level New York Center
Sat 03:16:43 PM 40.1503 -76.4386 105° East 356 410 13,000  Level New York Center
Sat 03:17:40 PM 40.1231 -76.3114 106° East 356 410 13,000  Level New York Center
Sat 03:18:41 PM 40.1122 -76.1856 96° East 351 404 13,000 -149 Level New York Center
Sat 03:19:41 PM 40.1047 -76.0767 95° East 346 398 12,700 -1,563 Descending New York Center
Sat 03:20:40 PM 40.0975 -75.9539 94° East 315 362 9,900 -2,083 Descending New York Center
Sat 03:21:42 PM 40.0897 -75.8447 95° East 302 348 8,500 -1,355 Descending New York Center
Sat 03:33:00 PM 39.9790 -75.8655 207° Southwest  Level Estimated
Sat 03:40:00 PM 39.9790 -75.8655 207° Southwest  Level Estimated
Sat 03:41:00 PM 39.9790 -75.8655 207° Southwest  Level Estimated

Login

Don't have an account? Register now (free) for customized features, flight alerts, and more!